Time;durP1;ratioP1;P1;durP2;ratioP2;P2;SDS_P1;SDS_P2;PMS_P1;PMS_P2;Temp;Humidity;BMP_temperature;BMP_pressure;BME280_temperature;BME280_humidity;BME280_pressure;Samples;Min_cycle;Max_cycle;Signal;HPM_P1;HPM_P2
2022/09/12 00:01:13;;;;;;;9.40;8.02;;;16.60;99.90;;;;;;5081807;28;20259;-73
2022/09/12 00:03:39;;;;;;;9.85;8.10;;;16.50;99.90;;;;;;5075205;28;20266;-75
2022/09/12 00:06:13;;;;;;;8.77;7.80;;;16.50;99.90;;;;;;5078783;28;20211;-75
2022/09/12 00:08:44;;;;;;;8.35;7.22;;;16.50;99.90;;;;;;5064395;28;20486;-74
2022/09/12 00:11:11;;;;;;;9.48;8.07;;;16.50;99.90;;;;;;5080655;28;20167;-75
2022/09/12 00:13:40;;;;;;;8.55;7.57;;;16.40;99.90;;;;;;5083375;28;20168;-74
2022/09/12 00:16:06;;;;;;;8.68;7.75;;;16.40;99.90;;;;;;5069265;28;20172;-75
2022/09/12 00:18:33;;;;;;;8.90;7.63;;;16.40;99.90;;;;;;5079970;28;20200;-73
2022/09/12 00:21:03;;;;;;;9.02;7.68;;;16.40;99.90;;;;;;5073865;28;20215;-73
2022/09/12 00:23:32;;;;;;;9.23;7.55;;;16.40;99.90;;;;;;5074446;28;20172;-76
2022/09/12 00:25:58;;;;;;;10.25;8.55;;;16.40;99.90;;;;;;5086131;28;20242;-73
2022/09/12 00:28:24;;;;;;;10.07;8.27;;;16.40;99.90;;;;;;5085411;28;20210;-76
2022/09/12 00:30:52;;;;;;;11.68;9.02;;;16.30;99.90;;;;;;5078011;28;20318;-75
2022/09/12 00:33:17;;;;;;;11.10;8.93;;;16.30;99.90;;;;;;5081756;28;20168;-76
2022/09/12 00:35:48;;;;;;;9.88;8.65;;;16.30;99.90;;;;;;5073518;28;20180;-76
2022/09/12 00:38:19;;;;;;;10.38;8.52;;;16.20;99.90;;;;;;5062590;28;20185;-76
2022/09/12 00:40:45;;;;;;;10.02;8.25;;;16.20;99.90;;;;;;5074935;28;20291;-75
2022/09/12 00:43:32;;;;;;;10.32;8.30;;;16.20;99.90;;;;;;5082502;28;20184;-75
2022/09/12 00:46:13;;;;;;;10.65;8.57;;;16.20;99.90;;;;;;5088696;28;20203;-75
2022/09/12 00:48:47;;;;;;;10.50;8.80;;;16.20;99.90;;;;;;5071254;28;20192;-70
2022/09/12 00:51:13;;;;;;;10.52;8.63;;;16.20;99.90;;;;;;5081877;28;20259;-75
2022/09/12 00:53:43;;;;;;;11.10;8.25;;;16.20;99.90;;;;;;5063390;28;20192;-76
2022/09/12 00:56:13;;;;;;;10.98;8.85;;;16.20;99.90;;;;;;5062690;28;20215;-76
2022/09/12 00:58:52;;;;;;;9.30;8.30;;;16.10;99.90;;;;;;5075430;28;20176;-75
2022/09/12 01:01:18;;;;;;;10.65;8.68;;;16.10;99.90;;;;;;5090982;28;20199;-75
2022/09/12 01:03:44;;;;;;;10.50;8.52;;;16.10;99.90;;;;;;5084305;28;20302;-74
2022/09/12 01:06:40;;;;;;;9.85;8.82;;;16.10;99.90;;;;;;5079186;28;20246;-75
2022/09/12 01:09:07;;;;;;;11.00;9.18;;;16.10;99.90;;;;;;5073949;28;20222;-74
2022/09/12 01:11:38;;;;;;;13.77;9.52;;;16.10;99.90;;;;;;5070580;28;20176;-75
2022/09/12 01:14:08;;;;;;;11.82;9.40;;;16.10;99.90;;;;;;5087410;28;20176;-70
2022/09/12 01:16:39;;;;;;;9.40;8.18;;;16.10;99.90;;;;;;5074217;28;20180;-74
2022/09/12 01:19:35;;;;;;;11.05;8.65;;;16.00;99.90;;;;;;5081155;28;20192;-76
2022/09/12 01:22:19;;;;;;;10.88;8.57;;;16.00;99.90;;;;;;5075395;28;20192;-76
2022/09/12 01:25:04;;;;;;;10.45;8.70;;;16.00;99.90;;;;;;5077564;28;20235;-75
2022/09/12 01:27:42;;;;;;;10.75;8.82;;;16.00;99.90;;;;;;5080148;28;20185;-74
2022/09/12 01:30:22;;;;;;;11.63;9.07;;;15.90;99.90;;;;;;5082352;28;20238;-72
2022/09/12 01:33:00;;;;;;;10.32;8.95;;;15.90;99.90;;;;;;5086653;28;20415;-75
2022/09/12 01:35:44;;;;;;;11.15;9.43;;;15.90;99.90;;;;;;5082923;28;20264;-73
2022/09/12 01:38:28;;;;;;;10.93;9.05;;;15.90;99.90;;;;;;5081700;28;20214;-76
2022/09/12 01:41:04;;;;;;;10.25;8.45;;;15.80;99.90;;;;;;5090572;28;20189;-70
2022/09/12 01:43:49;;;;;;;9.80;8.75;;;15.80;99.90;;;;;;5090943;28;20188;-74
2022/09/12 01:46:19;;;;;;;10.88;8.40;;;15.70;99.90;;;;;;5077484;28;20200;-75
2022/09/12 01:48:54;;;;;;;10.18;8.40;;;15.70;99.90;;;;;;5075151;28;20172;-76
2022/09/12 01:51:41;;;;;;;9.40;8.02;;;15.70;99.90;;;;;;5076060;28;20168;-73
2022/09/12 01:54:24;;;;;;;11.10;8.63;;;15.60;99.90;;;;;;5088930;28;20183;-74
2022/09/12 01:56:57;;;;;;;12.00;8.88;;;15.60;99.90;;;;;;5083320;28;20200;-73
2022/09/12 01:59:35;;;;;;;10.02;8.90;;;15.60;99.90;;;;;;5096073;28;20188;-71
2022/09/12 02:02:20;;;;;;;10.60;8.48;;;15.60;99.90;;;;;;5075159;28;20227;-75
2022/09/12 02:05:04;;;;;;;9.98;8.10;;;15.50;99.90;;;;;;5084528;28;20238;-76
2022/09/12 02:07:59;;;;;;;11.38;9.15;;;15.50;99.90;;;;;;5073895;28;20181;-75
2022/09/12 02:10:29;;;;;;;10.05;8.95;;;15.40;99.90;;;;;;5079407;28;20287;-72
2022/09/12 02:13:13;;;;;;;13.10;8.57;;;15.40;99.90;;;;;;5082199;28;20172;-75
2022/09/12 02:15:57;;;;;;;12.38;9.80;;;15.40;99.90;;;;;;5077289;28;20199;-75
2022/09/12 02:18:27;;;;;;;13.52;9.75;;;15.40;99.90;;;;;;5082869;28;20172;-75
2022/09/12 02:20:59;;;;;;;13.70;10.43;;;15.30;99.90;;;;;;5081392;28;20176;-75
2022/09/12 02:23:28;;;;;;;12.68;10.13;;;15.30;99.90;;;;;;5082723;28;20211;-76
2022/09/12 02:25:58;;;;;;;13.23;10.00;;;15.30;99.90;;;;;;5085864;28;20215;-76
2022/09/12 02:28:30;;;;;;;13.75;10.15;;;15.20;99.90;;;;;;5084162;28;20192;-73
2022/09/12 02:31:21;;;;;;;13.57;10.15;;;15.20;99.90;;;;;;5064643;28;20198;-76
2022/09/12 02:33:58;;;;;;;12.55;9.60;;;15.20;99.90;;;;;;5072885;28;20181;-74
2022/09/12 02:36:30;;;;;;;14.80;10.35;;;15.20;99.90;;;;;;5081269;28;20175;-75
2022/09/12 02:38:56;;;;;;;12.38;9.40;;;15.20;99.90;;;;;;5072541;28;20183;-75
2022/09/12 02:41:22;;;;;;;13.88;10.10;;;15.20;99.90;;;;;;5074484;28;20184;-72
2022/09/12 02:43:50;;;;;;;14.77;10.32;;;15.20;99.90;;;;;;5077962;28;20213;-74
2022/09/12 02:46:22;;;;;;;12.65;9.20;;;15.20;99.90;;;;;;5089674;28;20259;-73
2022/09/12 02:48:48;;;;;;;12.10;9.70;;;15.10;99.90;;;;;;5076381;28;20199;-75
2022/09/12 02:51:14;;;;;;;13.60;10.27;;;15.10;99.90;;;;;;5080181;28;20261;-76
2022/09/12 02:53:40;;;;;;;12.93;9.55;;;15.20;99.90;;;;;;5080968;28;20254;-75
2022/09/12 02:56:16;;;;;;;13.38;9.85;;;15.10;99.90;;;;;;5088039;28;20175;-73
2022/09/12 02:58:42;;;;;;;13.93;10.10;;;15.10;99.90;;;;;;5084639;28;20192;-72
2022/09/12 03:01:45;;;;;;;11.45;8.98;;;15.10;99.90;;;;;;5082770;28;20199;-74
2022/09/12 03:04:20;;;;;;;13.38;9.63;;;15.10;99.90;;;;;;5065222;28;20207;-75
2022/09/12 03:07:08;;;;;;;13.55;10.15;;;15.10;99.90;;;;;;5077493;28;20171;-73
2022/09/12 03:10:20;;;;;;;12.27;9.20;;;15.00;99.90;;;;;;5081589;28;20222;-75
2022/09/12 03:12:45;;;;;;;11.82;8.93;;;15.00;99.90;;;;;;5053436;28;20180;-72
2022/09/12 03:15:26;;;;;;;11.60;9.43;;;15.00;99.90;;;;;;5083866;28;20188;-74
2022/09/12 03:18:05;;;;;;;12.10;9.02;;;15.00;99.90;;;;;;5076250;28;20172;-73
2022/09/12 03:20:45;;;;;;;11.57;8.90;;;15.00;99.90;;;;;;5078409;28;20191;-75
2022/09/12 03:23:30;;;;;;;11.85;8.63;;;15.00;99.90;;;;;;5079838;28;20204;-75
2022/09/12 03:26:15;;;;;;;12.05;9.25;;;15.00;99.90;;;;;;5086089;28;20201;-72
2022/09/12 03:28:44;;;;;;;12.73;9.10;;;15.10;99.90;;;;;;5078217;28;20210;-76
2022/09/12 03:31:17;;;;;;;11.65;8.68;;;15.10;99.90;;;;;;5080424;28;20173;-73
2022/09/12 03:33:45;;;;;;;11.93;9.15;;;15.10;99.90;;;;;;5073057;28;20176;-76
2022/09/12 03:36:32;;;;;;;11.48;8.88;;;15.10;99.90;;;;;;5086633;28;20234;-73
2022/09/12 03:38:58;;;;;;;11.48;9.00;;;15.10;99.90;;;;;;5076307;28;20176;-74
2022/09/12 03:41:23;;;;;;;11.45;9.15;;;15.10;99.90;;;;;;5069612;28;20184;-75
2022/09/12 03:43:49;;;;;;;12.93;9.68;;;15.10;99.90;;;;;;5063177;28;20233;-75
2022/09/12 03:46:17;;;;;;;15.07;10.70;;;15.10;99.90;;;;;;5077673;28;20213;-75
2022/09/12 03:48:43;;;;;;;11.93;9.50;;;15.10;99.90;;;;;;5082627;28;20286;-73
2022/09/12 03:51:12;;;;;;;13.48;9.95;;;15.20;99.90;;;;;;5077302;28;20215;-73
2022/09/12 03:53:38;;;;;;;14.00;10.02;;;15.20;99.90;;;;;;5081477;28;20210;-74
2022/09/12 03:56:11;;;;;;;13.13;9.43;;;15.20;99.90;;;;;;5074752;28;20204;-73
2022/09/12 03:58:38;;;;;;;12.07;9.63;;;15.20;99.90;;;;;;5075927;28;20175;-73
2022/09/12 04:01:14;;;;;;;12.80;10.15;;;15.20;99.90;;;;;;5077046;28;20218;-76
2022/09/12 04:03:41;;;;;;;12.52;10.00;;;15.30;99.90;;;;;;5078642;28;20246;-75
2022/09/12 04:06:08;;;;;;;13.90;10.30;;;15.20;99.90;;;;;;5074544;28;20188;-75
2022/09/12 04:08:35;;;;;;;15.38;10.63;;;15.20;99.90;;;;;;5080919;28;20195;-74
2022/09/12 04:11:08;;;;;;;12.38;9.73;;;15.30;99.90;;;;;;5074232;28;20180;-73
2022/09/12 04:13:35;;;;;;;12.35;9.85;;;15.30;99.90;;;;;;5082321;28;20207;-71
2022/09/12 04:16:04;;;;;;;13.05;9.80;;;15.30;99.90;;;;;;5080105;28;20440;-72
2022/09/12 04:18:30;;;;;;;13.55;10.52;;;15.30;99.90;;;;;;5077292;28;20207;-70
2022/09/12 04:21:05;;;;;;;14.20;10.13;;;15.30;99.90;;;;;;5078536;28;20172;-71
2022/09/12 04:23:34;;;;;;;14.55;10.73;;;15.20;99.90;;;;;;5074829;28;20183;-72
2022/09/12 04:26:01;;;;;;;13.35;9.90;;;15.20;99.90;;;;;;5079813;28;20300;-71
2022/09/12 04:28:31;;;;;;;12.73;10.07;;;15.20;99.90;;;;;;5077971;28;20257;-70
2022/09/12 04:31:04;;;;;;;12.98;9.43;;;15.20;99.90;;;;;;5082417;28;20153;-71
2022/09/12 04:33:33;;;;;;;13.48;9.95;;;15.30;99.90;;;;;;5074350;28;20167;-70
2022/09/12 04:36:07;;;;;;;13.13;9.70;;;15.20;99.90;;;;;;5063837;28;20414;-70
2022/09/12 04:38:34;;;;;;;14.00;10.23;;;15.30;99.90;;;;;;5075706;28;20190;-70
2022/09/12 04:41:02;;;;;;;13.13;9.77;;;15.20;99.90;;;;;;5080445;28;20196;-71
2022/09/12 04:43:27;;;;;;;12.45;9.43;;;15.30;99.90;;;;;;5073306;28;20177;-72
2022/09/12 04:45:53;;;;;;;12.75;9.98;;;15.20;99.90;;;;;;5077404;28;20206;-73
2022/09/12 04:48:21;;;;;;;14.32;10.32;;;15.30;99.90;;;;;;5093191;28;20180;-73
2022/09/12 04:50:46;;;;;;;13.07;10.38;;;15.20;99.90;;;;;;5100907;28;20191;-72
2022/09/12 04:53:12;;;;;;;14.57;10.95;;;15.20;99.90;;;;;;5077669;28;20508;-68
2022/09/12 04:55:40;;;;;;;16.35;10.27;;;15.20;99.90;;;;;;5078529;28;20200;-71
2022/09/12 04:58:06;;;;;;;14.13;10.05;;;15.20;99.90;;;;;;5083332;28;20175;-72
2022/09/12 05:00:32;;;;;;;15.95;11.02;;;15.20;99.90;;;;;;5079664;28;20200;-72
2022/09/12 05:03:00;;;;;;;11.95;9.48;;;15.20;99.90;;;;;;5083213;28;20346;-71
2022/09/12 05:05:26;;;;;;;15.45;10.77;;;15.20;99.90;;;;;;5071640;28;20197;-73
2022/09/12 05:07:51;;;;;;;15.68;10.75;;;15.20;99.90;;;;;;5082321;28;20194;-71
2022/09/12 05:10:17;;;;;;;13.50;10.80;;;15.30;99.90;;;;;;5078659;28;20199;-71
2022/09/12 05:12:42;;;;;;;15.93;11.55;;;15.20;99.90;;;;;;5081084;28;20278;-72
2022/09/12 05:15:11;;;;;;;15.30;10.90;;;15.30;99.90;;;;;;5073287;28;20186;-73
2022/09/12 05:17:39;;;;;;;27.75;17.40;;;15.30;99.90;;;;;;5085488;28;20195;-70
2022/09/12 05:20:05;;;;;;;20.55;14.38;;;15.20;99.90;;;;;;5069593;28;20204;-73
2022/09/12 05:22:32;;;;;;;18.98;12.25;;;15.30;99.90;;;;;;5078948;28;20183;-72
2022/09/12 05:25:00;;;;;;;17.05;12.38;;;15.30;99.90;;;;;;5083808;28;20211;-71
2022/09/12 05:27:26;;;;;;;17.58;11.68;;;15.30;99.90;;;;;;5086533;28;20175;-70
2022/09/12 05:29:51;;;;;;;14.98;11.25;;;15.30;99.90;;;;;;5084493;28;20172;-71
2022/09/12 05:32:22;;;;;;;17.05;12.02;;;15.30;99.90;;;;;;5093278;28;20223;-70
2022/09/12 05:34:49;;;;;;;15.88;11.35;;;15.30;99.90;;;;;;5101054;28;20186;-72
2022/09/12 05:37:18;;;;;;;14.65;10.88;;;15.30;99.90;;;;;;5089513;28;20176;-68
2022/09/12 05:39:43;;;;;;;15.90;10.85;;;15.40;99.90;;;;;;5085705;28;20171;-72
2022/09/12 05:42:09;;;;;;;21.17;14.20;;;15.40;99.90;;;;;;5092076;28;20184;-72
2022/09/12 05:44:35;;;;;;;17.75;11.77;;;15.30;99.90;;;;;;5063655;28;20201;-73
2022/09/12 05:47:01;;;;;;;17.77;11.98;;;15.40;99.90;;;;;;5063615;28;20196;-72
2022/09/12 05:49:26;;;;;;;14.95;11.18;;;15.40;99.90;;;;;;5077798;28;20184;-72
2022/09/12 05:51:52;;;;;;;15.77;11.52;;;15.50;99.90;;;;;;5082100;28;20194;-72
2022/09/12 05:54:21;;;;;;;16.95;11.82;;;15.50;99.90;;;;;;5098692;28;20169;-72
2022/09/12 05:56:50;;;;;;;16.05;11.45;;;15.50;99.90;;;;;;5076392;28;20254;-73
2022/09/12 05:59:18;;;;;;;17.02;11.88;;;15.50;99.90;;;;;;5078519;28;20176;-72
2022/09/12 06:01:44;;;;;;;15.23;11.48;;;15.60;99.90;;;;;;5083791;28;20172;-69
2022/09/12 06:04:10;;;;;;;17.48;11.25;;;15.60;99.90;;;;;;5082405;28;20183;-72
2022/09/12 06:06:43;;;;;;;16.92;11.60;;;15.70;99.90;;;;;;5083576;28;20163;-73
2022/09/12 06:09:13;;;;;;;17.55;12.00;;;15.70;99.90;;;;;;5077841;28;20188;-73
2022/09/12 06:11:42;;;;;;;15.02;10.95;;;15.80;99.90;;;;;;5080740;28;20176;-72
2022/09/12 06:14:13;;;;;;;14.55;9.90;;;15.80;99.90;;;;;;5078060;28;20165;-72
2022/09/12 06:16:39;;;;;;;17.67;12.27;;;15.80;99.90;;;;;;5078520;28;20176;-72
2022/09/12 06:19:17;;;;;;;16.50;12.15;;;15.90;99.90;;;;;;5079126;28;20179;-71
2022/09/12 06:21:43;;;;;;;16.27;12.20;;;15.90;99.90;;;;;;5075451;28;20192;-73
2022/09/12 06:24:14;;;;;;;16.60;11.75;;;16.00;99.90;;;;;;5076890;28;20200;-73
2022/09/12 06:26:40;;;;;;;19.08;12.88;;;16.00;99.90;;;;;;5079655;28;20263;-72
2022/09/12 06:29:08;;;;;;;13.88;11.20;;;16.00;99.90;;;;;;5083068;28;20301;-74
2022/09/12 06:31:36;;;;;;;19.45;14.18;;;16.10;99.90;;;;;;5082984;28;20164;-73
2022/09/12 06:34:08;;;;;;;17.67;12.07;;;16.10;99.90;;;;;;5085437;28;20264;-73
2022/09/12 06:36:37;;;;;;;15.70;11.20;;;16.20;99.90;;;;;;5080018;28;20175;-73
2022/09/12 06:39:09;;;;;;;14.15;10.45;;;16.20;99.90;;;;;;5087904;28;20203;-72
2022/09/12 06:41:35;;;;;;;16.38;10.38;;;16.20;99.90;;;;;;5080916;28;20175;-71
2022/09/12 06:44:05;;;;;;;14.73;10.32;;;16.20;99.90;;;;;;5084091;28;20198;-74
2022/09/12 06:46:31;;;;;;;16.02;10.65;;;16.30;99.90;;;;;;5077204;28;20263;-71
2022/09/12 06:48:59;;;;;;;15.95;11.48;;;16.30;99.90;;;;;;5077447;28;20175;-73
2022/09/12 06:51:25;;;;;;;18.15;10.60;;;16.30;99.90;;;;;;5093422;28;20258;-74
2022/09/12 06:53:54;;;;;;;16.05;10.60;;;16.40;99.90;;;;;;5082767;28;20199;-71
2022/09/12 06:56:25;;;;;;;15.32;10.93;;;16.50;99.90;;;;;;5073958;28;20273;-73
2022/09/12 06:58:52;;;;;;;15.48;10.93;;;16.50;99.90;;;;;;5086102;28;20175;-71
2022/09/12 07:01:19;;;;;;;15.45;11.13;;;16.50;99.90;;;;;;5087573;28;20175;-73
2022/09/12 07:03:51;;;;;;;16.05;10.07;;;16.60;99.90;;;;;;5086057;28;20247;-71
2022/09/12 07:06:19;;;;;;;14.73;10.65;;;16.70;99.90;;;;;;5068475;28;20184;-74
2022/09/12 07:08:46;;;;;;;13.93;10.20;;;16.70;99.90;;;;;;5079762;28;20183;-73
2022/09/12 07:11:13;;;;;;;17.02;10.70;;;16.80;99.90;;;;;;5082702;28;20179;-73
2022/09/12 07:13:40;;;;;;;18.58;11.50;;;16.80;99.90;;;;;;5081443;28;20173;-72
2022/09/12 07:16:09;;;;;;;15.77;11.65;;;16.90;99.90;;;;;;5078898;28;20168;-72
2022/09/12 07:18:38;;;;;;;14.98;10.88;;;17.00;99.90;;;;;;5082938;28;20218;-68
2022/09/12 07:21:08;;;;;;;17.88;12.68;;;17.10;99.90;;;;;;5078217;28;20204;-66
2022/09/12 07:23:33;;;;;;;16.90;11.45;;;17.10;99.90;;;;;;5069865;28;20270;-70
2022/09/12 07:26:00;;;;;;;19.73;12.30;;;17.20;99.90;;;;;;5078490;28;20234;-70
2022/09/12 07:28:32;;;;;;;16.30;11.75;;;17.30;99.90;;;;;;5083592;28;20168;-71
2022/09/12 07:31:11;;;;;;;17.33;12.32;;;17.40;99.90;;;;;;5086143;28;20180;-71
2022/09/12 07:33:41;;;;;;;16.70;11.80;;;17.50;99.90;;;;;;5078171;28;20218;-71
2022/09/12 07:36:12;;;;;;;17.90;12.10;;;17.60;99.90;;;;;;5084236;28;20218;-72
2022/09/12 07:38:39;;;;;;;15.38;11.13;;;17.60;99.90;;;;;;5084404;28;20175;-71
2022/09/12 07:41:15;;;;;;;16.30;10.95;;;17.70;99.90;;;;;;5082100;28;20265;-72
2022/09/12 07:43:46;;;;;;;14.45;10.55;;;17.80;99.90;;;;;;5064174;28;20190;-72
2022/09/12 07:46:11;;;;;;;18.17;10.40;;;17.90;99.90;;;;;;5072585;28;20195;-70
2022/09/12 07:48:38;;;;;;;15.73;11.57;;;18.00;99.90;;;;;;5085251;28;20195;-71
2022/09/12 07:51:07;;;;;;;13.05;10.00;;;18.00;99.90;;;;;;5087559;28;20245;-71
2022/09/12 07:53:38;;;;;;;13.60;10.40;;;18.10;99.90;;;;;;5085782;28;20179;-72
2022/09/12 07:56:06;;;;;;;13.75;10.40;;;18.20;99.90;;;;;;5077725;28;20212;-72
2022/09/12 07:58:33;;;;;;;14.07;10.02;;;18.20;99.90;;;;;;5075786;28;20188;-72
2022/09/12 08:01:15;;;;;;;13.52;10.02;;;18.40;99.90;;;;;;5081416;28;20180;-72
2022/09/12 08:03:43;;;;;;;13.77;10.32;;;18.40;99.90;;;;;;5082681;28;20168;-73
2022/09/12 08:06:22;;;;;;;15.02;11.00;;;18.50;99.90;;;;;;5072317;28;20203;-72
2022/09/12 08:08:51;;;;;;;14.88;11.30;;;18.60;99.90;;;;;;5083212;28;20172;-72
2022/09/12 08:11:19;;;;;;;12.98;10.18;;;18.60;99.90;;;;;;5083321;28;20191;-71
2022/09/12 08:13:48;;;;;;;12.57;9.60;;;18.70;99.90;;;;;;5081164;28;20179;-71
2022/09/12 08:16:16;;;;;;;12.82;9.68;;;18.80;99.90;;;;;;5080508;28;20202;-71
2022/09/12 08:18:43;;;;;;;12.02;8.73;;;18.90;99.90;;;;;;5081656;28;20172;-73
2022/09/12 08:21:29;;;;;;;11.13;8.63;;;18.90;99.90;;;;;;5087789;28;20172;-71
2022/09/12 08:23:58;;;;;;;10.82;8.55;;;19.00;99.90;;;;;;5069810;28;20333;-71
2022/09/12 08:26:29;;;;;;;9.82;7.68;;;19.10;99.90;;;;;;5084838;28;20244;-72
2022/09/12 08:28:54;;;;;;;9.68;7.53;;;19.20;99.90;;;;;;5077537;28;20221;-72
2022/09/12 08:31:22;;;;;;;11.77;7.82;;;19.30;99.90;;;;;;5071624;28;20177;-71
2022/09/12 08:33:57;;;;;;;10.23;7.80;;;19.30;99.90;;;;;;5083550;28;20179;-71
2022/09/12 08:36:25;;;;;;;10.88;8.45;;;19.40;99.90;;;;;;5073808;28;20171;-71
2022/09/12 08:38:55;;;;;;;10.38;8.02;;;19.50;99.90;;;;;;5089588;28;20180;-70
2022/09/12 08:41:33;;;;;;;9.57;7.57;;;19.60;99.90;;;;;;5093725;28;20171;-71
2022/09/12 08:44:10;;;;;;;9.95;8.00;;;19.80;99.90;;;;;;5087973;28;20231;-71
2022/09/12 08:46:55;;;;;;;8.68;7.40;;;19.90;99.90;;;;;;5085880;28;20191;-72
2022/09/12 08:49:32;;;;;;;10.32;7.47;;;20.00;99.90;;;;;;5087402;28;20163;-72
2022/09/12 08:52:06;;;;;;;7.47;6.60;;;20.10;99.90;;;;;;5082898;28;20171;-72
2022/09/12 08:54:35;;;;;;;7.15;6.43;;;20.20;99.90;;;;;;5074974;28;20180;-72
2022/09/12 08:57:05;;;;;;;9.65;7.82;;;20.30;99.90;;;;;;5067646;28;20196;-71
2022/09/12 08:59:39;;;;;;;7.78;6.97;;;20.40;99.90;;;;;;5084404;28;20196;-72
2022/09/12 09:02:50;;;;;;;7.22;6.45;;;20.50;99.90;;;;;;5082017;28;20172;-72
2022/09/12 09:05:46;;;;;;;7.72;6.03;;;20.60;99.90;;;;;;4987939;28;20215;-72
2022/09/12 09:08:45;;;;;;;6.90;6.13;;;20.80;99.90;;;;;;5070875;28;20211;-73
2022/09/12 09:11:30;;;;;;;7.00;6.22;;;20.90;99.90;;;;;;5083715;28;20191;-72
2022/09/12 09:17:19;;;;;;;7.35;5.88;;;21.10;99.90;;;;;;5089605;28;20194;-72
2022/09/12 09:19:51;;;;;;;5.80;5.07;;;21.20;99.90;;;;;;5074271;28;20171;-71
2022/09/12 09:22:36;;;;;;;7.15;5.70;;;21.20;99.90;;;;;;5088220;28;20196;-71
2022/09/12 09:25:12;;;;;;;7.07;6.38;;;21.30;99.90;;;;;;5086623;28;20266;-72
2022/09/12 09:28:07;;;;;;;6.70;5.50;;;21.40;99.90;;;;;;5081630;28;20172;-71
2022/09/12 09:30:35;;;;;;;6.22;5.47;;;21.40;99.90;;;;;;5074762;28;20203;-72
2022/09/12 09:33:03;;;;;;;5.78;5.07;;;21.50;99.90;;;;;;5088108;28;20187;-72
2022/09/12 09:35:55;;;;;;;6.57;5.88;;;21.60;99.90;;;;;;5083655;28;20175;-71
2022/09/12 09:38:47;;;;;;;5.72;5.20;;;21.70;99.90;;;;;;5079728;28;20196;-72
2022/09/12 09:41:42;;;;;;;5.88;5.28;;;21.80;99.90;;;;;;5077994;28;20224;-69
2022/09/12 09:44:13;;;;;;;6.72;5.20;;;22.00;99.90;;;;;;5084007;28;20196;-72
2022/09/12 09:46:41;;;;;;;5.10;4.57;;;22.10;99.90;;;;;;5092264;28;20232;-71
2022/09/12 09:49:13;;;;;;;5.15;4.50;;;22.40;99.90;;;;;;5093549;28;20171;-73
2022/09/12 09:51:44;;;;;;;4.88;4.38;;;22.90;99.90;;;;;;5077211;28;20184;-72
2022/09/12 09:54:15;;;;;;;6.05;3.95;;;23.50;99.90;;;;;;5086062;28;20249;-73
2022/09/12 09:56:44;;;;;;;4.47;4.07;;;24.30;99.90;;;;;;5075971;28;20168;-73
2022/09/12 09:59:26;;;;;;;4.68;4.28;;;25.00;99.90;;;;;;5074610;28;20211;-73
2022/09/12 10:02:02;;;;;;;4.72;4.18;;;25.60;99.90;;;;;;5083028;28;20215;-72
2022/09/12 10:04:30;;;;;;;3.90;3.45;;;26.10;99.90;;;;;;5082826;28;20233;-71
2022/09/12 10:06:59;;;;;;;4.07;3.78;;;26.50;99.90;;;;;;5079798;28;20198;-73
2022/09/12 10:09:35;;;;;;;4.20;3.80;;;26.80;99.90;;;;;;5094756;28;20200;-72
2022/09/12 10:12:28;;;;;;;4.10;3.70;;;27.10;99.90;;;;;;5086210;28;20178;-72
2022/09/12 10:15:05;;;;;;;3.35;3.05;;;27.40;99.90;;;;;;5094725;28;20168;-73
2022/09/12 10:17:46;;;;;;;3.65;3.35;;;27.60;99.90;;;;;;5091402;28;20228;-73
2022/09/12 10:20:33;;;;;;;3.42;3.13;;;27.80;99.90;;;;;;5091414;28;20201;-72
2022/09/12 10:23:22;;;;;;;3.30;3.03;;;28.00;99.90;;;;;;5076325;28;20184;-72
2022/09/12 10:25:54;;;;;;;4.28;3.88;;;28.10;99.90;;;;;;5088357;28;20211;-73
2022/09/12 10:28:40;;;;;;;4.40;3.78;;;28.20;99.90;;;;;;5083428;28;20244;-73
2022/09/12 10:31:09;;;;;;;5.00;3.60;;;28.40;99.90;;;;;;5076356;28;20145;-73
2022/09/12 10:33:46;;;;;;;4.22;3.25;;;28.50;99.90;;;;;;5084671;28;20190;-73
2022/09/12 10:36:13;;;;;;;3.90;3.60;;;28.70;99.90;;;;;;5087006;28;20185;-72
2022/09/12 10:38:49;;;;;;;3.53;3.22;;;28.70;99.90;;;;;;5084661;28;20181;-72
2022/09/12 10:41:15;;;;;;;3.22;2.92;;;28.70;99.90;;;;;;5082009;28;20176;-73
2022/09/12 10:43:41;;;;;;;2.83;2.63;;;28.80;99.90;;;;;;5076219;28;20196;-72
2022/09/12 10:46:19;;;;;;;3.40;3.10;;;28.70;99.90;;;;;;5075892;28;20193;-70
2022/09/12 10:48:44;;;;;;;3.72;2.95;;;28.60;99.90;;;;;;5074851;28;20171;-72
2022/09/12 10:51:30;;;;;;;4.05;3.10;;;28.50;99.90;;;;;;5092215;28;20172;-72
2022/09/12 10:54:09;;;;;;;7.07;5.68;;;28.40;99.90;;;;;;5089219;28;20239;-73
2022/09/12 10:56:43;;;;;;;4.15;3.75;;;28.50;99.90;;;;;;5087055;28;20182;-72
2022/09/12 10:59:27;;;;;;;3.78;3.42;;;28.50;99.90;;;;;;5091892;28;20207;-72
2022/09/12 11:02:13;;;;;;;4.03;3.25;;;28.70;99.90;;;;;;5100547;28;20187;-71
2022/09/12 11:05:16;;;;;;;2.80;2.60;;;28.70;99.90;;;;;;5094584;28;20218;-72
2022/09/12 11:07:54;;;;;;;2.90;2.70;;;28.50;99.90;;;;;;5113351;28;20155;-71
2022/09/12 11:10:20;;;;;;;3.08;2.72;;;28.40;99.90;;;;;;5073278;28;20259;-72
2022/09/12 11:13:09;;;;;;;3.42;2.53;;;28.40;99.90;;;;;;5088247;28;20191;-71
2022/09/12 11:15:54;;;;;;;3.10;2.85;;;28.40;99.90;;;;;;5094377;28;20188;-73
2022/09/12 11:18:45;;;;;;;3.10;2.80;;;28.40;99.90;;;;;;5093989;28;20204;-71
2022/09/12 11:21:22;;;;;;;3.30;3.00;;;28.50;99.90;;;;;;5089037;28;20168;-69
2022/09/12 11:24:03;;;;;;;3.30;3.00;;;28.60;99.90;;;;;;5094424;28;20259;-72
2022/09/12 11:27:07;;;;;;;2.97;2.70;;;28.70;99.90;;;;;;5092230;28;20240;-69
2022/09/12 11:29:55;;;;;;;2.95;2.55;;;28.80;99.90;;;;;;5085678;28;20180;-73
2022/09/12 11:32:40;;;;;;;3.92;2.67;;;28.90;99.90;;;;;;5066804;28;20250;-69
2022/09/12 11:35:18;;;;;;;2.63;2.42;;;28.90;99.90;;;;;;5084566;28;20177;-67
2022/09/12 11:37:46;;;;;;;2.75;2.47;;;29.00;99.90;;;;;;5089518;28;20182;-71
2022/09/12 11:40:26;;;;;;;2.55;2.30;;;29.00;99.90;;;;;;5091153;28;20200;-69
2022/09/12 11:42:56;;;;;;;2.67;2.47;;;29.10;99.90;;;;;;5091119;28;20164;-73
2022/09/12 11:45:31;;;;;;;3.40;2.30;;;29.10;99.90;;;;;;5088229;28;20259;-68
2022/09/12 11:48:03;;;;;;;2.05;1.85;;;29.20;99.90;;;;;;5091801;28;20190;-70
2022/09/12 11:50:30;;;;;;;2.25;1.70;;;29.20;99.90;;;;;;5088999;28;20180;-71
2022/09/12 11:53:12;;;;;;;2.00;1.60;;;29.30;99.90;;;;;;5082102;28;20255;-71
2022/09/12 11:55:51;;;;;;;1.58;1.48;;;29.30;99.90;;;;;;5078633;28;20187;-72
2022/09/12 11:58:21;;;;;;;1.85;1.65;;;29.30;99.90;;;;;;5088117;28;20203;-69
2022/09/12 12:00:52;;;;;;;2.35;1.67;;;29.40;99.90;;;;;;5091442;28;20199;-69
2022/09/12 12:03:43;;;;;;;1.55;1.45;;;29.40;99.90;;;;;;5082369;28;20175;-73
2022/09/12 12:06:30;;;;;;;1.88;1.77;;;29.50;99.90;;;;;;5075956;28;20310;-72
2022/09/12 12:08:56;;;;;;;2.42;2.03;;;29.50;99.90;;;;;;5091470;28;20203;-68
2022/09/12 12:11:30;;;;;;;2.97;2.22;;;29.50;99.90;;;;;;5092043;28;20577;-71
2022/09/12 12:14:03;;;;;;;2.00;1.77;;;29.40;99.90;;;;;;5087947;28;20211;-69
2022/09/12 12:16:31;;;;;;;1.70;1.50;;;29.30;99.90;;;;;;5087932;28;20189;-70
2022/09/12 12:19:04;;;;;;;2.60;2.40;;;29.30;99.90;;;;;;5090706;28;20184;-71
2022/09/12 12:21:51;;;;;;;2.80;2.10;;;29.20;99.90;;;;;;5088552;28;20171;-70
2022/09/12 12:24:21;;;;;;;3.20;2.33;;;29.20;99.90;;;;;;5090114;28;20229;-69
2022/09/12 12:26:56;;;;;;;2.45;2.10;;;29.20;99.90;;;;;;5090452;28;20277;-71
2022/09/12 12:29:22;;;;;;;2.03;1.70;;;29.20;99.90;;;;;;5080742;28;20178;-72
2022/09/12 12:32:00;;;;;;;1.88;1.70;;;29.20;99.90;;;;;;5092371;28;20183;-72
2022/09/12 12:34:41;;;;;;;2.20;1.80;;;29.30;99.90;;;;;;5091977;28;20225;-72
2022/09/12 12:37:19;;;;;;;3.35;1.80;;;29.40;99.90;;;;;;5094719;28;20175;-70
2022/09/12 12:39:48;;;;;;;1.50;1.40;;;29.50;99.90;;;;;;5091860;28;20176;-71
2022/09/12 12:42:37;;;;;;;1.70;1.60;;;29.50;99.90;;;;;;5091765;28;20202;-74
2022/09/12 12:45:10;;;;;;;1.63;1.50;;;29.60;99.90;;;;;;5087622;28;20229;-72
2022/09/12 12:47:55;;;;;;;2.08;1.92;;;29.70;99.90;;;;;;5083903;28;20214;-72
2022/09/12 12:50:29;;;;;;;2.15;1.80;;;29.80;99.90;;;;;;5098722;28;20163;-65
2022/09/12 12:52:59;;;;;;;2.22;2.00;;;29.90;99.90;;;;;;5082843;28;20168;-71
2022/09/12 12:55:44;;;;;;;2.42;1.90;;;30.00;99.90;;;;;;5082916;28;20183;-72
2022/09/12 12:58:40;;;;;;;2.30;1.98;;;30.00;99.90;;;;;;5087417;28;20253;-72
2022/09/12 13:01:08;;;;;;;2.53;1.92;;;30.10;99.90;;;;;;5083739;28;20481;-70
2022/09/12 13:03:36;;;;;;;2.15;1.90;;;30.20;99.90;;;;;;5087037;28;20191;-69
2022/09/12 13:06:06;;;;;;;2.72;2.20;;;30.20;99.90;;;;;;5087576;28;20204;-69
2022/09/12 13:08:38;;;;;;;2.35;2.15;;;30.30;99.90;;;;;;5088075;28;20301;-72
2022/09/12 13:11:13;;;;;;;2.47;2.28;;;30.30;99.90;;;;;;5085831;28;20189;-70
2022/09/12 13:14:00;;;;;;;2.40;2.20;;;30.30;99.90;;;;;;5088773;28;20175;-70